Time;durP1;ratioP1;P1;durP2;ratioP2;P2;SDS_P1;SDS_P2;PMS_P1;PMS_P2;Temp;Humidity;BMP_temperature;BMP_pressure;BME280_temperature;BME280_humidity;BME280_pressure;Samples;Min_cycle;Max_cycle;Signal;HPM_P1;HPM_P2
2021/08/16 00:01:17;;;;;;;9.63;3.85;;;;;;;13.25;100.00;100233.25;2579795;55;20134;-77
2021/08/16 00:03:46;;;;;;;10.73;4.03;;;;;;;13.28;100.00;100243.69;2580208;55;20120;-78
2021/08/16 00:06:14;;;;;;;8.80;3.67;;;;;;;13.25;100.00;100243.97;2580009;55;20740;-70
2021/08/16 00:08:42;;;;;;;7.00;3.30;;;;;;;13.25;100.00;100249.34;2580066;55;20109;-78
2021/08/16 00:11:09;;;;;;;5.55;2.50;;;;;;;13.26;100.00;100243.81;2580883;55;20120;-69
2021/08/16 00:13:37;;;;;;;5.32;2.40;;;;;;;13.29;100.00;100245.34;2580249;55;20113;-70
2021/08/16 00:16:07;;;;;;;7.03;2.85;;;;;;;13.29;100.00;100256.06;2579900;55;20127;-70
2021/08/16 00:18:35;;;;;;;4.78;2.45;;;;;;;13.32;100.00;100250.41;2580727;55;20106;-70
2021/08/16 00:21:05;;;;;;;7.72;2.60;;;;;;;13.39;100.00;100258.75;2581591;55;20125;-78
2021/08/16 00:23:32;;;;;;;10.77;3.37;;;;;;;13.35;100.00;100260.87;2580860;55;20506;-69
2021/08/16 00:26:00;;;;;;;6.80;2.40;;;;;;;13.34;100.00;100249.28;2580795;55;20128;-69
2021/08/16 00:28:28;;;;;;;7.30;3.22;;;;;;;13.33;100.00;100254.81;2580254;55;20393;-70
2021/08/16 00:30:56;;;;;;;5.75;2.30;;;;;;;13.35;100.00;100244.78;2579727;55;20123;-70
2021/08/16 00:33:24;;;;;;;5.47;2.45;;;;;;;13.36;100.00;100249.16;2580563;55;20225;-78
2021/08/16 00:35:51;;;;;;;4.85;2.53;;;;;;;13.38;100.00;100257.87;2580225;55;20662;-78
2021/08/16 00:38:20;;;;;;;6.85;2.17;;;;;;;13.44;100.00;100256.47;2580276;55;20110;-69
2021/08/16 00:40:53;;;;;;;5.57;2.22;;;;;;;13.45;100.00;100267.06;2580548;55;20132;-78
2021/08/16 00:43:21;;;;;;;8.60;2.40;;;;;;;13.42;100.00;100271.84;2580223;55;20137;-78
2021/08/16 00:45:49;;;;;;;7.22;2.22;;;;;;;13.38;100.00;100265.94;2580479;55;20117;-69
2021/08/16 00:48:17;;;;;;;9.20;2.50;;;;;;;13.41;100.00;100273.66;2580297;55;20628;-70
2021/08/16 00:50:46;;;;;;;4.68;1.95;;;;;;;13.42;100.00;100272.66;2581395;55;20122;-69
2021/08/16 00:53:15;;;;;;;6.53;2.65;;;;;;;13.42;100.00;100271.84;2579894;55;20138;-78
2021/08/16 00:55:45;;;;;;;7.87;2.50;;;;;;;13.43;100.00;100271.72;2580679;55;20477;-78
2021/08/16 00:58:12;;;;;;;10.70;2.75;;;;;;;13.36;100.00;100274.09;2580485;55;20112;-78
2021/08/16 01:00:42;;;;;;;7.25;2.70;;;;;;;13.34;100.00;100273.41;2580704;55;20117;-70
2021/08/16 01:03:10;;;;;;;6.45;3.12;;;;;;;13.32;100.00;100271.84;2580414;55;20507;-70
2021/08/16 01:05:38;;;;;;;7.10;3.37;;;;;;;13.26;100.00;100272.44;2580680;55;20110;-78
2021/08/16 01:08:07;;;;;;;6.07;2.60;;;;;;;13.25;100.00;100273.44;2580453;55;20113;-79
2021/08/16 01:10:34;;;;;;;4.12;2.20;;;;;;;13.22;100.00;100272.72;2580502;55;20509;-78
2021/08/16 01:13:04;;;;;;;6.03;2.70;;;;;;;13.18;100.00;100273.19;2579540;55;20134;-69
2021/08/16 01:15:33;;;;;;;5.60;2.22;;;;;;;13.16;100.00;100270.63;2579600;55;20593;-79
2021/08/16 01:18:01;;;;;;;7.55;2.45;;;;;;;13.14;100.00;100275.28;2581033;55;20113;-70
2021/08/16 01:20:29;;;;;;;8.02;2.37;;;;;;;13.14;100.00;100291.34;2579392;55;20502;-79
2021/08/16 01:22:57;;;;;;;4.00;2.47;;;;;;;13.14;100.00;100277.97;2580149;55;20634;-78
2021/08/16 01:25:25;;;;;;;4.90;2.53;;;;;;;13.22;100.00;100282.59;2580681;55;20543;-70
2021/08/16 01:27:55;;;;;;;9.73;2.62;;;;;;;13.26;100.00;100296.56;2580122;55;20133;-78
2021/08/16 01:30:24;;;;;;;5.60;2.33;;;;;;;13.30;100.00;100284.56;2580028;55;20149;-69
2021/08/16 01:32:51;;;;;;;7.75;2.50;;;;;;;13.30;100.00;100300.63;2580007;55;20146;-70
2021/08/16 01:35:21;;;;;;;7.45;2.45;;;;;;;13.30;100.00;100290.78;2579968;55;20116;-78
2021/08/16 01:37:50;;;;;;;9.25;3.47;;;;;;;13.35;100.00;100293.03;2574223;55;20136;-70
2021/08/16 01:40:17;;;;;;;6.82;2.22;;;;;;;13.36;100.00;100294.72;2580271;55;20109;-70
2021/08/16 01:42:45;;;;;;;6.18;2.08;;;;;;;13.36;100.00;100294.72;2580426;55;20128;-79
2021/08/16 01:45:14;;;;;;;10.93;2.97;;;;;;;13.36;100.00;100294.72;2580627;55;20106;-70
2021/08/16 01:47:42;;;;;;;4.78;2.30;;;;;;;13.35;100.00;100293.03;2580188;55;20128;-78
2021/08/16 01:50:10;;;;;;;4.60;2.10;;;;;;;13.34;100.00;100292.16;2579747;55;20634;-78
2021/08/16 01:52:38;;;;;;;4.30;2.08;;;;;;;13.30;100.00;100290.78;2580266;55;20117;-78
2021/08/16 01:55:10;;;;;;;6.03;2.22;;;;;;;13.29;100.00;100282.88;2580475;55;20132;-69
2021/08/16 01:57:38;;;;;;;7.62;2.65;;;;;;;13.28;100.00;100287.41;2580215;55;20650;-79
2021/08/16 02:00:07;;;;;;;6.12;3.75;;;;;;;13.30;100.00;100296.12;2579515;55;20109;-70
2021/08/16 02:02:41;;;;;;;6.30;3.55;;;;;;;13.31;100.00;100303.16;2580778;55;20159;-78
2021/08/16 02:05:10;;;;;;;5.57;2.00;;;;;;;13.32;100.00;100298.66;2579753;55;20646;-70
2021/08/16 02:07:37;;;;;;;7.93;2.22;;;;;;;13.32;100.00;100295.97;2580361;55;20181;-70
2021/08/16 02:10:06;;;;;;;3.83;1.90;;;;;;;13.32;100.00;100294.16;2581930;55;20161;-70
2021/08/16 02:12:34;;;;;;;5.32;2.33;;;;;;;13.33;100.00;100297.69;2580880;55;20408;-70
2021/08/16 02:15:02;;;;;;;4.72;1.85;;;;;;;13.35;100.00;100309.09;2581628;55;20135;-78
2021/08/16 02:17:30;;;;;;;5.03;2.15;;;;;;;13.32;100.00;100304.84;2580014;55;20239;-70
2021/08/16 02:20:00;;;;;;;4.82;2.10;;;;;;;13.32;100.00;100306.69;2580864;55;20109;-78
2021/08/16 02:22:28;;;;;;;6.05;2.47;;;;;;;13.31;100.00;100308.53;2580409;55;20144;-70
2021/08/16 02:24:55;;;;;;;4.90;1.87;;;;;;;13.28;100.00;100307.97;2581038;55;20121;-70
2021/08/16 02:27:23;;;;;;;5.85;2.10;;;;;;;13.24;100.00;100306.56;2580486;55;20157;-78
2021/08/16 02:29:51;;;;;;;5.05;2.00;;;;;;;13.24;100.00;100307.41;2582020;55;20118;-70
2021/08/16 02:32:19;;;;;;;3.75;1.95;;;;;;;13.23;100.00;100311.06;2580224;55;20117;-79
2021/08/16 02:34:47;;;;;;;3.37;2.05;;;;;;;13.27;100.00;100319.69;2580232;55;20121;-78
2021/08/16 02:37:16;;;;;;;4.60;1.95;;;;;;;13.31;100.00;100313.03;2580030;55;20591;-79
2021/08/16 02:39:44;;;;;;;6.20;2.47;;;;;;;13.35;100.00;100311.78;2581342;55;20152;-69
2021/08/16 02:42:12;;;;;;;5.55;2.15;;;;;;;13.35;100.00;100314.44;2580611;55;20537;-70
2021/08/16 02:44:40;;;;;;;4.55;2.00;;;;;;;13.33;100.00;100317.25;2580569;55;20629;-70
2021/08/16 02:47:07;;;;;;;6.93;2.50;;;;;;;13.34;100.00;100328.84;2580178;55;20133;-69
2021/08/16 02:49:35;;;;;;;6.40;2.62;;;;;;;13.30;100.00;100325.59;2580763;55;20124;-78
2021/08/16 02:52:06;;;;;;;5.40;2.65;;;;;;;13.31;100.00;100329.97;2580641;55;20117;-78
2021/08/16 02:54:35;;;;;;;6.50;3.00;;;;;;;13.34;100.00;100323.47;2580463;55;20119;-78
2021/08/16 02:57:03;;;;;;;8.23;3.90;;;;;;;13.36;100.00;100321.50;2580571;55;20225;-78
2021/08/16 02:59:31;;;;;;;9.65;3.67;;;;;;;13.34;100.00;100323.47;2580371;55;20117;-70
2021/08/16 03:01:58;;;;;;;5.43;3.42;;;;;;;13.35;100.00;100325.16;2580861;55;20127;-78
2021/08/16 03:04:26;;;;;;;10.85;4.15;;;;;;;13.39;100.00;100331.91;2580219;55;20733;-78
2021/08/16 03:06:54;;;;;;;16.73;4.50;;;;;;;13.38;100.00;100329.38;2581057;55;20154;-70
2021/08/16 03:09:24;;;;;;;11.23;4.12;;;;;;;13.40;100.00;100340.81;2580828;55;20113;-78
2021/08/16 03:11:53;;;;;;;13.50;5.20;;;;;;;13.43;100.00;100338.69;2579661;55;20970;-70
2021/08/16 03:14:21;;;;;;;10.63;4.32;;;;;;;13.42;100.00;100336.97;2579710;55;20157;-70
2021/08/16 03:16:49;;;;;;;10.95;4.87;;;;;;;13.45;100.00;100338.56;2580161;55;20097;-79
2021/08/16 03:19:17;;;;;;;10.32;4.30;;;;;;;13.42;100.00;100334.31;2580862;55;20543;-78
2021/08/16 03:21:45;;;;;;;12.63;4.97;;;;;;;13.43;100.00;100338.69;2579792;55;20110;-70
2021/08/16 03:24:12;;;;;;;11.00;4.65;;;;;;;13.39;100.00;100348.00;2575521;55;20608;-69
2021/08/16 03:26:40;;;;;;;11.15;5.10;;;;;;;13.40;100.00;100355.03;2580858;55;20123;-79
2021/08/16 03:29:12;;;;;;;10.85;5.20;;;;;;;13.47;100.00;100360.69;2580383;55;20147;-70
2021/08/16 03:31:40;;;;;;;15.10;5.22;;;;;;;13.50;100.00;100347.03;2580411;55;20108;-78
2021/08/16 03:34:08;;;;;;;13.55;5.75;;;;;;;13.57;100.00;100355.34;2581184;55;20147;-78
2021/08/16 03:36:35;;;;;;;13.00;5.18;;;;;;;13.61;100.00;100346.88;2580500;55;20139;-70
2021/08/16 03:39:04;;;;;;;11.52;4.90;;;;;;;13.64;100.00;100341.22;2581330;55;20661;-70
2021/08/16 03:41:32;;;;;;;10.15;4.90;;;;;;;13.69;100.00;100353.34;2580675;55;20117;-71
2021/08/16 03:44:00;;;;;;;9.10;4.37;;;;;;;13.86;100.00;100360.62;2576193;55;20623;-71
2021/08/16 03:46:30;;;;;;;9.25;4.68;;;;;;;14.03;100.00;100356.34;2580264;55;20128;-70
2021/08/16 03:48:58;;;;;;;13.82;5.15;;;;;;;14.26;100.00;100361.34;2581015;55;20129;-70
2021/08/16 03:51:25;;;;;;;10.88;4.37;;;;;;;14.41;100.00;100371.56;2580344;55;20105;-78
2021/08/16 03:53:53;;;;;;;10.80;4.87;;;;;;;14.46;100.00;100371.97;2578990;55;20120;-78
2021/08/16 03:56:21;;;;;;;12.63;4.80;;;;;;;14.63;100.00;100374.81;2579741;55;20574;-70
2021/08/16 03:58:49;;;;;;;11.60;4.47;;;;;;;14.76;100.00;100375.34;2581632;55;20665;-71
2021/08/16 04:01:16;;;;;;;8.43;4.15;;;;;;;14.99;100.00;100373.09;2580019;55;20143;-72
2021/08/16 04:03:46;;;;;;;8.32;4.55;;;;;;;15.21;100.00;100370.06;2580293;55;20133;-70
2021/08/16 04:06:14;;;;;;;12.37;4.90;;;;;;;15.44;100.00;100381.19;2579897;55;20118;-77
2021/08/16 04:08:43;;;;;;;12.80;5.22;;;;;;;15.65;100.00;100382.69;2580010;55;20135;-77
2021/08/16 04:11:12;;;;;;;13.10;4.10;;;;;;;15.69;100.00;100382.22;2580802;55;20130;-78
2021/08/16 04:13:40;;;;;;;9.65;3.75;;;;;;;15.82;100.00;100378.25;2581111;55;20113;-71
2021/08/16 04:16:08;;;;;;;12.63;4.20;;;;;;;16.10;100.00;100386.19;2579856;55;20117;-78
2021/08/16 04:18:37;;;;;;;8.88;2.97;;;;;;;16.47;100.00;100382.34;2573774;55;20131;-71
2021/08/16 04:21:06;;;;;;;6.87;3.80;;;;;;;16.60;100.00;100381.03;2580226;55;20153;-71
2021/08/16 04:23:34;;;;;;;6.22;3.12;;;;;;;16.69;100.00;100380.03;2580749;55;20639;-71
2021/08/16 04:26:02;;;;;;;11.32;3.28;;;;;;;16.93;100.00;100381.09;2580005;55;20125;-77
2021/08/16 04:28:30;;;;;;;5.68;2.20;;;;;;;16.77;100.00;100387.28;2580299;55;20097;-78
2021/08/16 04:30:57;;;;;;;4.75;1.95;;;;;;;16.74;100.00;100382.25;2580166;55;20116;-71
2021/08/16 04:33:25;;;;;;;4.72;2.00;;;;;;;16.88;100.00;100383.47;2580070;55;20101;-78
2021/08/16 04:35:53;;;;;;;2.85;1.70;;;;;;;17.08;100.00;100384.88;2574636;55;20117;-71
2021/08/16 04:38:23;;;;;;;5.45;1.95;;;;;;;17.09;100.00;100386.56;2580195;55;20140;-70
2021/08/16 04:40:52;;;;;;;6.78;2.00;;;;;;;16.92;100.00;100396.44;2580511;55;20128;-71
2021/08/16 04:43:21;;;;;;;6.05;1.92;;;;;;;16.68;100.00;100394.53;2580539;55;20112;-70
2021/08/16 04:45:48;;;;;;;7.35;2.30;;;;;;;16.41;100.00;100399.97;2580833;55;20204;-78
2021/08/16 04:48:17;;;;;;;5.93;1.85;;;;;;;16.32;100.00;100400.09;2581166;55;20131;-79
2021/08/16 04:50:45;;;;;;;6.07;2.33;;;;;;;16.20;100.00;100405.75;2580828;55;20166;-78
2021/08/16 04:53:13;;;;;;;5.62;2.03;;;;;;;16.17;100.00;100411.47;2579973;55;20133;-78
2021/08/16 04:55:42;;;;;;;9.00;2.40;;;;;;;16.20;100.00;100408.44;2580996;55;20143;-78
2021/08/16 04:58:10;;;;;;;5.85;1.80;;;;;;;16.18;100.00;100402.38;2579352;55;20123;-71
2021/08/16 05:00:38;;;;;;;4.50;1.70;;;;;;;16.21;100.00;100402.06;2579693;55;20113;-77
2021/08/16 05:03:06;;;;;;;5.15;1.77;;;;;;;16.24;100.00;100412.53;2574561;55;20596;-71
2021/08/16 05:05:34;;;;;;;8.50;1.98;;;;;;;16.28;100.00;100411.19;2580012;55;20124;-71
2021/08/16 05:08:02;;;;;;;6.40;2.55;;;;;;;16.34;100.00;100415.09;2578313;55;20131;-79
2021/08/16 05:10:32;;;;;;;6.43;1.95;;;;;;;16.36;100.00;100417.63;2578836;55;20108;-71
2021/08/16 05:13:02;;;;;;;4.65;1.40;;;;;;;16.32;100.00;100421.62;2578962;55;20493;-71
2021/08/16 05:15:30;;;;;;;3.80;1.40;;;;;;;16.37;100.00;100422.00;2578119;55;20113;-71
2021/08/16 05:18:02;;;;;;;6.93;2.03;;;;;;;16.38;100.00;100426.38;2580048;55;20563;-71
2021/08/16 05:20:31;;;;;;;5.40;2.15;;;;;;;16.40;100.00;100421.66;2580071;55;20121;-78
2021/08/16 05:22:59;;;;;;;6.32;1.95;;;;;;;16.52;100.00;100417.69;2579773;55;20167;-78
2021/08/16 05:25:27;;;;;;;5.37;2.20;;;;;;;16.65;100.00;100419.94;2579637;55;20685;-77
2021/08/16 05:27:55;;;;;;;5.45;1.98;;;;;;;16.91;100.00;100426.22;2578517;55;20123;-70
2021/08/16 05:30:24;;;;;;;3.42;1.65;;;;;;;16.98;100.00;100432.66;2578308;55;20130;-74
2021/08/16 05:32:52;;;;;;;4.28;1.60;;;;;;;17.15;100.00;100427.34;2580368;55;20116;-73
2021/08/16 05:35:20;;;;;;;5.68;1.70;;;;;;;17.41;100.00;100429.91;2579312;55;20117;-70
2021/08/16 05:37:48;;;;;;;5.95;1.80;;;;;;;17.49;100.00;100435.31;2579920;55;20123;-72
2021/08/16 05:40:15;;;;;;;4.70;2.00;;;;;;;17.58;98.78;100430.75;2578224;55;20179;-75
2021/08/16 05:42:43;;;;;;;4.40;1.67;;;;;;;17.72;97.79;100439.16;2579754;55;20623;-75
2021/08/16 05:45:12;;;;;;;4.07;1.40;;;;;;;17.72;98.49;100439.16;2579081;55;20117;-74
2021/08/16 05:47:41;;;;;;;4.75;2.12;;;;;;;17.72;99.04;100433.75;2579715;55;20645;-69
2021/08/16 05:50:10;;;;;;;3.20;1.60;;;;;;;17.75;98.36;100438.84;2580724;55;20477;-77
2021/08/16 05:52:38;;;;;;;3.37;1.45;;;;;;;17.70;96.51;100451.97;2579071;55;20125;-75
2021/08/16 05:55:07;;;;;;;6.72;1.98;;;;;;;17.82;96.23;100450.63;2584000;55;20614;-74
2021/08/16 05:57:35;;;;;;;4.28;1.75;;;;;;;17.88;94.76;100458.03;2580656;55;20116;-69
2021/08/16 06:00:03;;;;;;;22.00;2.40;;;;;;;17.85;94.71;100449.44;2578558;55;20135;-69
2021/08/16 06:02:32;;;;;;;5.57;1.62;;;;;;;18.11;93.15;100461.94;2578550;55;20109;-69
2021/08/16 06:05:03;;;;;;;7.57;2.25;;;;;;;18.41;90.05;100463.03;2579160;55;20775;-73
2021/08/16 06:07:30;;;;;;;5.05;1.87;;;;;;;18.57;91.46;100469.41;2579036;55;20592;-70
2021/08/16 06:09:58;;;;;;;12.15;1.98;;;;;;;18.63;89.96;100464.16;2579173;55;20109;-74
2021/08/16 06:12:26;;;;;;;5.82;1.75;;;;;;;18.88;87.90;100465.91;2579022;55;20145;-69
2021/08/16 06:14:54;;;;;;;2.45;1.60;;;;;;;19.22;86.63;100464.72;2578870;55;20164;-74
2021/08/16 06:17:22;;;;;;;5.00;1.37;;;;;;;19.52;81.99;100472.97;2578955;55;20116;-74
2021/08/16 06:19:50;;;;;;;3.80;1.37;;;;;;;19.68;83.85;100469.28;2578118;55;20137;-69
2021/08/16 06:22:19;;;;;;;5.40;1.60;;;;;;;19.67;82.50;100475.72;2579078;55;20193;-69
2021/08/16 06:24:46;;;;;;;3.33;1.40;;;;;;;19.82;82.55;100480.34;2579041;55;20529;-73
2021/08/16 06:27:14;;;;;;;7.18;2.00;;;;;;;19.98;80.90;100493.75;2578841;55;20128;-69
2021/08/16 06:29:42;;;;;;;3.83;1.40;;;;;;;20.11;80.51;100493.12;2579063;55;20128;-74
2021/08/16 06:32:10;;;;;;;4.97;2.08;;;;;;;19.94;78.44;100480.75;2579063;55;20527;-74
2021/08/16 06:34:41;;;;;;;6.10;1.25;;;;;;;19.63;80.98;100489.78;2578946;55;20100;-69
2021/08/16 06:37:09;;;;;;;3.47;1.42;;;;;;;19.27;82.40;100491.22;2578989;55;20117;-74
2021/08/16 06:39:38;;;;;;;6.30;1.40;;;;;;;19.04;84.71;100492.88;2578952;55;20097;-74
2021/08/16 06:42:06;;;;;;;7.85;1.75;;;;;;;18.75;85.60;100493.47;2578761;55;20120;-69
2021/08/16 06:44:33;;;;;;;5.57;1.70;;;;;;;18.52;87.38;100496.09;2578924;55;20120;-69
2021/08/16 06:47:01;;;;;;;5.57;1.80;;;;;;;18.39;87.39;100502.03;2578946;55;20682;-68
2021/08/16 06:49:29;;;;;;;3.10;1.60;;;;;;;18.20;89.38;100502.22;2578895;55;20093;-69
2021/08/16 06:51:57;;;;;;;4.97;1.70;;;;;;;18.26;90.50;100500.69;2578967;55;20126;-73
2021/08/16 06:54:24;;;;;;;4.43;1.40;;;;;;;18.10;90.36;100501.56;2578644;55;20117;-69
2021/08/16 06:56:54;;;;;;;4.25;1.80;;;;;;;18.53;91.46;100513.97;2578593;55;20105;-68
2021/08/16 06:59:21;;;;;;;5.70;1.60;;;;;;;19.00;89.65;100509.59;2578805;55;20201;-74
2021/08/16 07:01:50;;;;;;;4.05;1.48;;;;;;;19.30;84.12;100507.94;2578854;55;20175;-74
2021/08/16 07:04:18;;;;;;;4.97;1.25;;;;;;;19.34;85.60;100527.34;2578927;55;20116;-68
2021/08/16 07:06:46;;;;;;;6.75;1.85;;;;;;;19.39;81.21;100532.22;2578965;55;20110;-75
2021/08/16 07:09:14;;;;;;;2.62;1.37;;;;;;;19.30;82.32;100534.97;2578809;55;20109;-73
2021/08/16 07:11:42;;;;;;;5.50;1.60;;;;;;;19.22;82.12;100531.50;2578876;55;20109;-74
2021/08/16 07:14:11;;;;;;;5.22;1.30;;;;;;;19.04;83.90;100533.44;2578836;55;20170;-69
2021/08/16 07:16:39;;;;;;;2.30;1.50;;;;;;;18.86;84.25;100549.03;2578857;55;20124;-74
2021/08/16 07:19:07;;;;;;;2.70;1.58;;;;;;;18.73;84.78;100542.28;2578908;55;20097;-69
2021/08/16 07:21:34;;;;;;;4.37;1.60;;;;;;;18.60;86.27;100547.38;2578783;55;20148;-69
2021/08/16 07:24:02;;;;;;;3.42;1.30;;;;;;;18.50;85.36;100553.81;2578882;55;20117;-68
2021/08/16 07:26:30;;;;;;;3.03;1.40;;;;;;;18.43;86.59;100558.22;2573269;55;20167;-75
2021/08/16 07:28:58;;;;;;;5.87;1.92;;;;;;;18.33;89.14;100560.25;2578733;55;20105;-68
2021/08/16 07:31:27;;;;;;;4.32;1.95;;;;;;;18.38;88.11;100573.25;2578633;55;20524;-74
2021/08/16 07:33:55;;;;;;;4.55;1.20;;;;;;;18.49;86.49;100571.06;2578633;55;20119;-69
2021/08/16 07:36:23;;;;;;;6.43;1.52;;;;;;;18.50;87.10;100575.44;2578762;55;20514;-74
2021/08/16 07:38:50;;;;;;;3.53;1.58;;;;;;;18.42;87.42;100572.75;2578726;55;20124;-69
2021/08/16 07:41:18;;;;;;;5.47;1.62;;;;;;;18.33;87.34;100571.06;2578878;55;20105;-69
2021/08/16 07:43:46;;;;;;;6.90;1.83;;;;;;;18.28;88.19;100573.44;2573533;55;20511;-69
2021/08/16 07:46:14;;;;;;;4.32;1.75;;;;;;;18.18;87.28;100571.75;2578680;55;20121;-74
2021/08/16 07:48:43;;;;;;;5.82;1.50;;;;;;;18.18;88.63;100585.25;2578714;55;20109;-69
2021/08/16 07:51:11;;;;;;;7.53;1.92;;;;;;;18.32;90.13;100577.47;2578763;55;20117;-69
2021/08/16 07:53:38;;;;;;;3.85;1.37;;;;;;;18.86;83.44;100581.44;2578751;55;20199;-69
2021/08/16 07:56:06;;;;;;;3.58;1.50;;;;;;;19.20;82.96;100583.03;2578523;55;20115;-69
2021/08/16 07:58:34;;;;;;;4.35;1.30;;;;;;;19.26;80.08;100587.75;2578670;55;20120;-74
2021/08/16 08:01:02;;;;;;;7.35;1.55;;;;;;;19.16;79.52;100592.53;2578683;55;20140;-69
2021/08/16 08:03:31;;;;;;;6.03;1.40;;;;;;;19.09;79.38;100600.50;2578794;55;20109;-69
2021/08/16 08:06:00;;;;;;;9.15;1.40;;;;;;;18.99;80.96;100589.00;2578664;55;20618;-74
2021/08/16 08:08:27;;;;;;;3.62;1.37;;;;;;;18.92;80.37;100608.62;2578513;55;20632;-74
2021/08/16 08:10:55;;;;;;;4.57;1.25;;;;;;;19.13;81.82;100593.72;2578612;55;20121;-69
2021/08/16 08:13:23;;;;;;;6.10;2.45;;;;;;;19.25;80.18;100601.44;2578562;55;20127;-74
2021/08/16 08:15:51;;;;;;;4.12;1.30;;;;;;;19.12;78.70;100607.41;2578601;55;20118;-74
2021/08/16 08:18:19;;;;;;;3.85;1.27;;;;;;;18.90;79.97;100609.81;2578712;55;20124;-74
2021/08/16 08:20:46;;;;;;;2.72;1.48;;;;;;;18.75;80.27;100613.22;2578611;55;20128;-75
2021/08/16 08:23:15;;;;;;;3.33;1.85;;;;;;;18.51;82.53;100611.41;2578639;55;20113;-74
2021/08/16 08:25:43;;;;;;;4.22;2.10;;;;;;;18.35;84.37;100618.50;2578552;55;20579;-70
2021/08/16 08:28:15;;;;;;;4.47;1.23;;;;;;;18.21;88.93;100628.09;2578673;55;20120;-74
2021/08/16 08:30:43;;;;;;;5.35;1.90;;;;;;;18.11;88.51;100621.19;2578910;55;20121;-69
2021/08/16 08:33:14;;;;;;;4.78;1.23;;;;;;;18.07;86.33;100631.50;2578693;55;20120;-68
2021/08/16 08:35:45;;;;;;;3.28;1.30;;;;;;;18.00;89.03;100631.28;2578710;55;20105;-74
2021/08/16 08:38:15;;;;;;;3.80;1.80;;;;;;;17.98;90.04;100635.16;2578573;55;20143;-75
2021/08/16 08:40:43;;;;;;;5.68;1.60;;;;;;;17.99;90.15;100643.09;2578590;55;20750;-74
2021/08/16 08:43:13;;;;;;;7.35;1.75;;;;;;;18.07;91.18;100642.28;2578595;55;20113;-75
2021/08/16 08:45:42;;;;;;;7.15;2.37;;;;;;;18.14;93.02;100653.25;2578478;55;20578;-68
2021/08/16 08:48:10;;;;;;;2.90;1.35;;;;;;;18.14;89.83;100664.06;2578538;55;20117;-69
2021/08/16 08:50:39;;;;;;;36.63;18.85;;;;;;;17.94;91.28;100653.53;2578519;55;20117;-74
2021/08/16 08:53:06;;;;;;;15.52;7.43;;;;;;;17.78;91.45;100665.97;2578521;55;20120;-69
2021/08/16 08:55:36;;;;;;;11.23;4.70;;;;;;;17.79;92.94;100666.81;2578464;55;20224;-74
2021/08/16 08:58:05;;;;;;;3.00;1.77;;;;;;;17.82;93.61;100666.47;2578427;55;20106;-68
2021/08/16 09:00:34;;;;;;;6.70;1.55;;;;;;;17.89;93.38;100672.91;2578586;55;20108;-69
2021/08/16 09:03:03;;;;;;;6.72;2.10;;;;;;;17.96;92.67;100677.66;2578561;55;20500;-69
2021/08/16 09:05:32;;;;;;;2.80;1.27;;;;;;;18.01;91.56;100670.75;2578829;55;20109;-74
2021/08/16 09:08:00;;;;;;;2.92;1.10;;;;;;;18.07;90.85;100674.69;2578406;55;20127;-69
2021/08/16 09:10:28;;;;;;;10.63;1.52;;;;;;;18.13;91.14;100657.78;2578392;55;20119;-75
2021/08/16 09:13:00;;;;;;;5.78;1.50;;;;;;;18.19;88.66;100675.22;2578495;55;20643;-69
2021/08/16 09:15:30;;;;;;;2.47;1.33;;;;;;;18.30;90.22;100674.03;2578530;55;20496;-69
2021/08/16 09:18:03;;;;;;;5.50;1.23;;;;;;;18.90;91.11;100674.69;2572942;55;20136;-75
2021/08/16 09:20:34;;;;;;;2.75;1.42;;;;;;;19.51;84.76;100686.88;2578639;55;20117;-75
2021/08/16 09:23:04;;;;;;;4.55;1.12;;;;;;;19.80;84.11;100697.06;2578301;55;20537;-74
2021/08/16 09:25:36;;;;;;;1.93;1.07;;;;;;;19.76;80.99;100693.03;2578409;55;20117;-75
2021/08/16 09:28:07;;;;;;;2.70;1.08;;;;;;;19.56;80.78;100708.84;2578448;55;20129;-70
2021/08/16 09:30:37;;;;;;;5.30;1.73;;;;;;;19.40;82.52;100702.47;2578512;55;20125;-69
2021/08/16 09:33:15;;;;;;;5.77;2.30;;;;;;;19.44;85.26;100702.94;2578352;55;20144;-69
2021/08/16 09:35:51;;;;;;;5.07;1.50;;;;;;;19.58;87.96;100710.34;2578743;55;20234;-75
2021/08/16 09:38:19;;;;;;;8.35;1.58;;;;;;;19.68;85.47;100699.31;2578023;55;20166;-69
2021/08/16 09:40:50;;;;;;;4.30;1.62;;;;;;;19.96;85.20;100706.16;2578298;55;20115;-69
2021/08/16 09:43:27;;;;;;;4.75;2.20;;;;;;;20.08;84.02;100709.28;2578380;55;20161;-74
2021/08/16 09:45:55;;;;;;;6.35;1.75;;;;;;;19.84;85.17;100714.66;2578495;55;20106;-75
2021/08/16 09:48:26;;;;;;;6.90;2.28;;;;;;;19.74;84.78;100720.25;2578298;55;20142;-75
2021/08/16 09:50:55;;;;;;;5.57;1.85;;;;;;;19.57;85.83;100722.19;2578420;55;20132;-75
2021/08/16 09:53:25;;;;;;;54.00;22.48;;;;;;;19.35;86.85;100725.66;2578340;55;20560;-69
2021/08/16 09:55:57;;;;;;;20.33;9.48;;;;;;;19.24;88.06;100718.75;2578372;55;20120;-69
2021/08/16 09:58:30;;;;;;;24.35;12.73;;;;;;;19.08;89.15;100715.03;2578220;55;20528;-69
2021/08/16 10:00:58;;;;;;;29.73;14.65;;;;;;;18.89;91.04;100724.34;2578394;55;20534;-75
2021/08/16 10:03:26;;;;;;;37.05;16.30;;;;;;;18.66;92.04;100726.88;2578235;55;20125;-69
2021/08/16 10:05:56;;;;;;;30.58;14.55;;;;;;;18.51;94.71;100732.97;2578240;55;20120;-69
2021/08/16 10:08:25;;;;;;;14.15;6.72;;;;;;;18.32;97.33;100736.81;2578180;55;20121;-71
2021/08/16 10:10:55;;;;;;;15.70;7.45;;;;;;;18.26;99.37;100745.59;2578258;55;20616;-75
2021/08/16 10:13:23;;;;;;;9.60;4.95;;;;;;;18.10;100.00;100739.13;2578148;55;20497;-74
2021/08/16 10:15:56;;;;;;;4.57;2.42;;;;;;;18.16;100.00;100741.19;2578116;55;20119;-75
2021/08/16 10:18:28;;;;;;;6.70;2.03;;;;;;;18.25;100.00;100735.81;2578267;55;20113;-69
2021/08/16 10:20:56;;;;;;;4.80;2.87;;;;;;;18.32;99.99;100740.38;2578463;55;20106;-76
2021/08/16 10:23:25;;;;;;;4.55;2.80;;;;;;;18.50;100.00;100742.91;2578177;55;20127;-75
2021/08/16 10:25:54;;;;;;;6.68;3.30;;;;;;;18.64;97.96;100729.78;2578206;55;20117;-69
2021/08/16 10:28:26;;;;;;;7.03;3.53;;;;;;;18.87;98.98;100735.31;2578328;55;20574;-69
2021/08/16 10:30:57;;;;;;;5.40;1.83;;;;;;;19.12;95.90;100734.47;2579003;55;20117;-69
2021/08/16 10:33:25;;;;;;;4.43;2.03;;;;;;;19.63;94.49;100749.56;2579216;55;20158;-69
2021/08/16 10:35:54;;;;;;;7.87;2.67;;;;;;;20.00;92.01;100738.13;2573884;55;20252;-69
2021/08/16 10:38:24;;;;;;;4.75;2.03;;;;;;;20.41;88.50;100742.41;2578895;55;20124;-75
2021/08/16 10:40:54;;;;;;;3.40;2.00;;;;;;;20.48;85.73;100736.28;2579016;55;20130;-69
2021/08/16 10:43:22;;;;;;;5.00;2.12;;;;;;;20.33;85.58;100734.34;2578963;55;20523;-75
2021/08/16 10:45:52;;;;;;;4.15;2.30;;;;;;;20.33;88.40;100739.75;2578882;55;20643;-69
2021/08/16 10:48:26;;;;;;;7.12;3.78;;;;;;;20.35;89.32;100737.75;2579075;55;20120;-75
2021/08/16 10:51:04;;;;;;;4.35;3.20;;;;;;;20.49;88.53;100744.22;2578929;55;20663;-75
2021/08/16 10:53:33;;;;;;;4.62;2.00;;;;;;;20.59;87.57;100744.00;2578892;55;20128;-75
2021/08/16 10:56:01;;;;;;;11.82;6.15;;;;;;;20.69;88.13;100744.59;2578752;55;20121;-69
2021/08/16 10:58:30;;;;;;;8.55;2.62;;;;;;;20.99;86.85;100743.84;2578745;55;20139;-75
2021/08/16 11:00:58;;;;;;;6.47;2.37;;;;;;;21.22;84.02;100751.94;2578953;55;20160;-69
2021/08/16 11:03:27;;;;;;;6.87;2.37;;;;;;;21.53;83.55;100742.78;2578844;55;20120;-69
2021/08/16 11:05:55;;;;;;;4.93;2.10;;;;;;;21.73;77.84;100742.22;2579133;55;20147;-69
2021/08/16 11:08:31;;;;;;;8.05;2.17;;;;;;;21.76;76.75;100744.59;2578910;55;20623;-69
2021/08/16 11:11:07;;;;;;;5.75;2.72;;;;;;;21.40;78.22;100737.16;2578913;55;20580;-69
2021/08/16 11:13:35;;;;;;;5.80;2.42;;;;;;;21.17;79.50;100751.66;2579037;55;20148;-69
2021/08/16 11:16:07;;;;;;;6.20;2.45;;;;;;;21.03;80.87;100749.75;2578899;55;20109;-69
2021/08/16 11:18:36;;;;;;;5.10;2.55;;;;;;;20.78;80.71;100753.47;2578929;55;20110;-69
2021/08/16 11:21:09;;;;;;;8.50;2.33;;;;;;;20.53;81.80;100739.28;2578761;55;20134;-74
2021/08/16 11:23:39;;;;;;;14.85;2.80;;;;;;;20.44;83.28;100752.91;2578965;55;20132;-75
2021/08/16 11:26:10;;;;;;;5.77;2.90;;;;;;;20.47;85.24;100761.69;2578784;55;20110;-70